sensor_id;sensor_type;location;lat;lon;timestamp;P1;durP1;ratioP1;P2;durP2;ratioP2
11506;SDS011;5810;51.180;6.646;2023-08-12T00:01:23;4.10;;;2.00;;
11506;SDS011;5810;51.180;6.646;2023-08-12T00:03:50;1.63;;;1.52;;
11506;SDS011;5810;51.180;6.646;2023-08-12T00:06:16;2.38;;;2.17;;
11506;SDS011;5810;51.180;6.646;2023-08-12T00:08:42;2.35;;;1.80;;
11506;SDS011;5810;51.180;6.646;2023-08-12T00:11:08;1.98;;;1.80;;
11506;SDS011;5810;51.180;6.646;2023-08-12T00:13:34;3.30;;;2.05;;
11506;SDS011;5810;51.180;6.646;2023-08-12T00:16:00;2.10;;;1.77;;
11506;SDS011;5810;51.180;6.646;2023-08-12T00:18:26;2.65;;;2.42;;
11506;SDS011;5810;51.180;6.646;2023-08-12T00:20:52;3.10;;;2.05;;
11506;SDS011;5810;51.180;6.646;2023-08-12T00:23:18;2.22;;;1.98;;
11506;SDS011;5810;51.180;6.646;2023-08-12T00:25:44;2.38;;;2.05;;
11506;SDS011;5810;51.180;6.646;2023-08-12T00:28:10;1.80;;;1.70;;
11506;SDS011;5810;51.180;6.646;2023-08-12T00:30:37;2.75;;;1.33;;
11506;SDS011;5810;51.180;6.646;2023-08-12T00:33:03;1.90;;;1.80;;
11506;SDS011;5810;51.180;6.646;2023-08-12T00:35:29;2.65;;;2.40;;
11506;SDS011;5810;51.180;6.646;2023-08-12T00:37:55;4.28;;;2.78;;
11506;SDS011;5810;51.180;6.646;2023-08-12T00:40:21;3.75;;;1.67;;
11506;SDS011;5810;51.180;6.646;2023-08-12T00:42:47;2.55;;;1.95;;
11506;SDS011;5810;51.180;6.646;2023-08-12T00:45:13;2.03;;;1.92;;
11506;SDS011;5810;51.180;6.646;2023-08-12T00:47:39;1.88;;;1.63;;
11506;SDS011;5810;51.180;6.646;2023-08-12T00:50:06;1.90;;;1.80;;
11506;SDS011;5810;51.180;6.646;2023-08-12T00:52:34;2.10;;;2.00;;
11506;SDS011;5810;51.180;6.646;2023-08-12T00:55:00;3.65;;;2.75;;
11506;SDS011;5810;51.180;6.646;2023-08-12T00:57:26;1.80;;;1.70;;
11506;SDS011;5810;51.180;6.646;2023-08-12T00:59:52;2.55;;;2.22;;
11506;SDS011;5810;51.180;6.646;2023-08-12T01:02:19;4.38;;;2.25;;
11506;SDS011;5810;51.180;6.646;2023-08-12T01:04:45;3.88;;;2.35;;
11506;SDS011;5810;51.180;6.646;2023-08-12T01:07:11;3.53;;;2.72;;
11506;SDS011;5810;51.180;6.646;2023-08-12T01:09:37;3.08;;;2.33;;
11506;SDS011;5810;51.180;6.646;2023-08-12T01:12:09;4.65;;;1.50;;
11506;SDS011;5810;51.180;6.646;2023-08-12T01:14:47;1.95;;;1.85;;
11506;SDS011;5810;51.180;6.646;2023-08-12T01:17:14;5.13;;;2.13;;
11506;SDS011;5810;51.180;6.646;2023-08-12T01:19:41;1.65;;;1.55;;
11506;SDS011;5810;51.180;6.646;2023-08-12T01:22:08;1.65;;;1.55;;
11506;SDS011;5810;51.180;6.646;2023-08-12T01:24:35;1.80;;;1.70;;
11506;SDS011;5810;51.180;6.646;2023-08-12T01:27:02;2.03;;;1.77;;
11506;SDS011;5810;51.180;6.646;2023-08-12T01:29:28;2.58;;;2.38;;
11506;SDS011;5810;51.180;6.646;2023-08-12T01:31:55;2.13;;;1.90;;
11506;SDS011;5810;51.180;6.646;2023-08-12T01:36:51;2.40;;;2.22;;
11506;SDS011;5810;51.180;6.646;2023-08-12T01:39:18;2.97;;;2.72;;
11506;SDS011;5810;51.180;6.646;2023-08-12T01:41:45;1.85;;;1.70;;
11506;SDS011;5810;51.180;6.646;2023-08-12T01:44:11;18.20;;;1.95;;
11506;SDS011;5810;51.180;6.646;2023-08-12T01:46:37;3.88;;;1.80;;
11506;SDS011;5810;51.180;6.646;2023-08-12T01:49:03;4.65;;;1.85;;
11506;SDS011;5810;51.180;6.646;2023-08-12T01:51:29;4.55;;;2.42;;
11506;SDS011;5810;51.180;6.646;2023-08-12T01:53:55;3.28;;;1.90;;
11506;SDS011;5810;51.180;6.646;2023-08-12T01:56:21;3.45;;;2.25;;
11506;SDS011;5810;51.180;6.646;2023-08-12T01:58:47;1.35;;;1.33;;
11506;SDS011;5810;51.180;6.646;2023-08-12T02:01:13;1.70;;;1.60;;
11506;SDS011;5810;51.180;6.646;2023-08-12T02:03:39;1.67;;;1.30;;
11506;SDS011;5810;51.180;6.646;2023-08-12T02:06:05;2.55;;;2.33;;
11506;SDS011;5810;51.180;6.646;2023-08-12T02:08:31;2.33;;;1.70;;
11506;SDS011;5810;51.180;6.646;2023-08-12T02:10:57;3.80;;;2.20;;
11506;SDS011;5810;51.180;6.646;2023-08-12T02:13:23;2.63;;;2.13;;
11506;SDS011;5810;51.180;6.646;2023-08-12T02:15:49;1.45;;;1.30;;
11506;SDS011;5810;51.180;6.646;2023-08-12T02:18:15;1.65;;;1.55;;
11506;SDS011;5810;51.180;6.646;2023-08-12T02:20:41;1.35;;;1.25;;
11506;SDS011;5810;51.180;6.646;2023-08-12T02:23:07;3.80;;;1.35;;
11506;SDS011;5810;51.180;6.646;2023-08-12T02:25:33;3.47;;;1.42;;
11506;SDS011;5810;51.180;6.646;2023-08-12T02:27:59;2.03;;;1.92;;
11506;SDS011;5810;51.180;6.646;2023-08-12T02:30:25;2.30;;;2.20;;
11506;SDS011;5810;51.180;6.646;2023-08-12T02:32:51;1.58;;;1.20;;
11506;SDS011;5810;51.180;6.646;2023-08-12T02:35:18;1.40;;;1.27;;
11506;SDS011;5810;51.180;6.646;2023-08-12T02:37:44;2.35;;;2.05;;
11506;SDS011;5810;51.180;6.646;2023-08-12T02:40:10;1.65;;;1.58;;
11506;SDS011;5810;51.180;6.646;2023-08-12T02:42:36;1.85;;;1.30;;
11506;SDS011;5810;51.180;6.646;2023-08-12T02:45:02;2.15;;;1.60;;
11506;SDS011;5810;51.180;6.646;2023-08-12T02:47:28;2.95;;;1.52;;
11506;SDS011;5810;51.180;6.646;2023-08-12T02:49:54;1.45;;;1.35;;
11506;SDS011;5810;51.180;6.646;2023-08-12T02:52:20;3.70;;;1.58;;
11506;SDS011;5810;51.180;6.646;2023-08-12T02:54:46;1.23;;;1.13;;
11506;SDS011;5810;51.180;6.646;2023-08-12T02:57:12;1.60;;;1.50;;
11506;SDS011;5810;51.180;6.646;2023-08-12T02:59:38;3.20;;;1.45;;
11506;SDS011;5810;51.180;6.646;2023-08-12T03:02:04;1.83;;;1.30;;
11506;SDS011;5810;51.180;6.646;2023-08-12T03:04:30;0.98;;;0.98;;
11506;SDS011;5810;51.180;6.646;2023-08-12T03:06:56;1.02;;;1.02;;
11506;SDS011;5810;51.180;6.646;2023-08-12T03:09:22;3.22;;;1.92;;
11506;SDS011;5810;51.180;6.646;2023-08-12T03:11:48;3.38;;;1.60;;
11506;SDS011;5810;51.180;6.646;2023-08-12T03:14:14;1.67;;;1.58;;
11506;SDS011;5810;51.180;6.646;2023-08-12T03:16:40;3.20;;;1.52;;
11506;SDS011;5810;51.180;6.646;2023-08-12T03:19:06;1.70;;;1.60;;
11506;SDS011;5810;51.180;6.646;2023-08-12T03:21:32;2.15;;;1.30;;
11506;SDS011;5810;51.180;6.646;2023-08-12T03:23:59;2.05;;;1.88;;
11506;SDS011;5810;51.180;6.646;2023-08-12T03:26:25;1.77;;;1.67;;
11506;SDS011;5810;51.180;6.646;2023-08-12T03:28:51;1.77;;;1.48;;
11506;SDS011;5810;51.180;6.646;2023-08-12T03:31:17;2.35;;;1.50;;
11506;SDS011;5810;51.180;6.646;2023-08-12T03:33:43;1.83;;;1.73;;
11506;SDS011;5810;51.180;6.646;2023-08-12T03:36:09;2.25;;;1.63;;
11506;SDS011;5810;51.180;6.646;2023-08-12T03:38:35;1.67;;;1.30;;
11506;SDS011;5810;51.180;6.646;2023-08-12T03:41:02;1.40;;;1.30;;
11506;SDS011;5810;51.180;6.646;2023-08-12T03:43:28;1.00;;;0.98;;
11506;SDS011;5810;51.180;6.646;2023-08-12T03:45:54;1.42;;;1.33;;
11506;SDS011;5810;51.180;6.646;2023-08-12T03:48:20;1.35;;;1.25;;
11506;SDS011;5810;51.180;6.646;2023-08-12T03:50:46;2.10;;;1.73;;
11506;SDS011;5810;51.180;6.646;2023-08-12T03:53:12;3.47;;;1.48;;
11506;SDS011;5810;51.180;6.646;2023-08-12T03:55:38;1.48;;;1.38;;
11506;SDS011;5810;51.180;6.646;2023-08-12T03:58:04;0.90;;;0.90;;
11506;SDS011;5810;51.180;6.646;2023-08-12T04:00:30;4.57;;;1.63;;
11506;SDS011;5810;51.180;6.646;2023-08-12T04:02:56;1.15;;;1.15;;
11506;SDS011;5810;51.180;6.646;2023-08-12T04:05:22;0.90;;;0.90;;
11506;SDS011;5810;51.180;6.646;2023-08-12T04:07:48;1.67;;;1.45;;
11506;SDS011;5810;51.180;6.646;2023-08-12T04:10:14;1.50;;;1.42;;
11506;SDS011;5810;51.180;6.646;2023-08-12T04:12:40;1.40;;;1.30;;
11506;SDS011;5810;51.180;6.646;2023-08-12T04:15:09;1.48;;;1.38;;
11506;SDS011;5810;51.180;6.646;2023-08-12T04:17:36;5.45;;;1.63;;
11506;SDS011;5810;51.180;6.646;2023-08-12T04:20:02;1.50;;;1.40;;
11506;SDS011;5810;51.180;6.646;2023-08-12T04:22:31;1.35;;;1.25;;
11506;SDS011;5810;51.180;6.646;2023-08-12T04:24:57;1.25;;;1.25;;
11506;SDS011;5810;51.180;6.646;2023-08-12T04:27:23;2.92;;;2.10;;
11506;SDS011;5810;51.180;6.646;2023-08-12T04:29:49;1.50;;;1.40;;
11506;SDS011;5810;51.180;6.646;2023-08-12T04:32:15;1.33;;;1.27;;
11506;SDS011;5810;51.180;6.646;2023-08-12T04:34:41;0.90;;;0.90;;
11506;SDS011;5810;51.180;6.646;2023-08-12T04:37:10;1.33;;;1.23;;
11506;SDS011;5810;51.180;6.646;2023-08-12T04:39:36;1.50;;;1.40;;
11506;SDS011;5810;51.180;6.646;2023-08-12T04:42:02;1.77;;;1.67;;
11506;SDS011;5810;51.180;6.646;2023-08-12T04:44:28;1.38;;;1.27;;
11506;SDS011;5810;51.180;6.646;2023-08-12T04:46:54;2.47;;;1.40;;
11506;SDS011;5810;51.180;6.646;2023-08-12T04:49:20;1.23;;;1.13;;
11506;SDS011;5810;51.180;6.646;2023-08-12T04:51:48;1.50;;;1.35;;
11506;SDS011;5810;51.180;6.646;2023-08-12T04:54:17;1.38;;;1.38;;
11506;SDS011;5810;51.180;6.646;2023-08-12T04:56:43;1.02;;;1.02;;
11506;SDS011;5810;51.180;6.646;2023-08-12T04:59:09;1.67;;;1.58;;
11506;SDS011;5810;51.180;6.646;2023-08-12T05:01:35;1.15;;;1.15;;
11506;SDS011;5810;51.180;6.646;2023-08-12T05:04:02;1.65;;;1.55;;
11506;SDS011;5810;51.180;6.646;2023-08-12T05:06:28;1.48;;;1.35;;
11506;SDS011;5810;51.180;6.646;2023-08-12T05:08:54;1.83;;;1.42;;
11506;SDS011;5810;51.180;6.646;2023-08-12T05:11:20;2.13;;;2.03;;
11506;SDS011;5810;51.180;6.646;2023-08-12T05:13:46;0.88;;;0.88;;
11506;SDS011;5810;51.180;6.646;2023-08-12T05:16:12;1.33;;;1.25;;
11506;SDS011;5810;51.180;6.646;2023-08-12T05:18:37;3.50;;;1.67;;
11506;SDS011;5810;51.180;6.646;2023-08-12T05:21:03;1.10;;;1.10;;
11506;SDS011;5810;51.180;6.646;2023-08-12T05:23:29;1.23;;;1.20;;
11506;SDS011;5810;51.180;6.646;2023-08-12T05:25:55;1.05;;;1.02;;
11506;SDS011;5810;51.180;6.646;2023-08-12T05:28:22;3.05;;;0.90;;
11506;SDS011;5810;51.180;6.646;2023-08-12T05:30:47;1.27;;;1.25;;
11506;SDS011;5810;51.180;6.646;2023-08-12T05:33:13;1.35;;;1.33;;
11506;SDS011;5810;51.180;6.646;2023-08-12T05:35:39;1.42;;;1.33;;
11506;SDS011;5810;51.180;6.646;2023-08-12T05:38:05;1.60;;;1.50;;
11506;SDS011;5810;51.180;6.646;2023-08-12T05:40:31;1.30;;;1.30;;
11506;SDS011;5810;51.180;6.646;2023-08-12T05:42:57;1.00;;;1.00;;
11506;SDS011;5810;51.180;6.646;2023-08-12T05:45:23;1.23;;;1.00;;
11506;SDS011;5810;51.180;6.646;2023-08-12T05:47:49;0.82;;;0.82;;
11506;SDS011;5810;51.180;6.646;2023-08-12T05:50:15;1.90;;;1.45;;
11506;SDS011;5810;51.180;6.646;2023-08-12T05:52:42;0.80;;;0.80;;
11506;SDS011;5810;51.180;6.646;2023-08-12T05:55:09;1.88;;;1.60;;
11506;SDS011;5810;51.180;6.646;2023-08-12T05:57:34;1.20;;;1.20;;
11506;SDS011;5810;51.180;6.646;2023-08-12T06:00:00;1.27;;;1.17;;
11506;SDS011;5810;51.180;6.646;2023-08-12T06:02:27;1.75;;;1.55;;
11506;SDS011;5810;51.180;6.646;2023-08-12T06:04:53;2.00;;;0.93;;
11506;SDS011;5810;51.180;6.646;2023-08-12T06:07:19;1.02;;;1.02;;
11506;SDS011;5810;51.180;6.646;2023-08-12T06:09:45;1.85;;;1.75;;
11506;SDS011;5810;51.180;6.646;2023-08-12T06:12:11;1.23;;;1.23;;
11506;SDS011;5810;51.180;6.646;2023-08-12T06:14:37;1.60;;;1.50;;
11506;SDS011;5810;51.180;6.646;2023-08-12T06:17:04;1.10;;;1.10;;
11506;SDS011;5810;51.180;6.646;2023-08-12T06:19:30;0.95;;;0.95;;
11506;SDS011;5810;51.180;6.646;2023-08-12T06:21:56;2.58;;;1.88;;
11506;SDS011;5810;51.180;6.646;2023-08-12T06:24:22;1.70;;;1.60;;
11506;SDS011;5810;51.180;6.646;2023-08-12T06:26:48;1.08;;;1.08;;
11506;SDS011;5810;51.180;6.646;2023-08-12T06:29:14;1.38;;;1.27;;
11506;SDS011;5810;51.180;6.646;2023-08-12T06:31:40;2.72;;;1.25;;
11506;SDS011;5810;51.180;6.646;2023-08-12T06:34:06;0.95;;;0.95;;
11506;SDS011;5810;51.180;6.646;2023-08-12T06:36:32;9.57;;;1.25;;
11506;SDS011;5810;51.180;6.646;2023-08-12T06:38:58;1.33;;;1.33;;
11506;SDS011;5810;51.180;6.646;2023-08-12T06:41:24;1.40;;;1.30;;
11506;SDS011;5810;51.180;6.646;2023-08-12T06:43:50;0.90;;;0.90;;
11506;SDS011;5810;51.180;6.646;2023-08-12T06:46:16;0.82;;;0.82;;
11506;SDS011;5810;51.180;6.646;2023-08-12T06:48:42;1.27;;;1.27;;
11506;SDS011;5810;51.180;6.646;2023-08-12T06:51:08;1.30;;;1.20;;
11506;SDS011;5810;51.180;6.646;2023-08-12T06:53:37;0.80;;;0.80;;
11506;SDS011;5810;51.180;6.646;2023-08-12T06:56:03;0.70;;;0.70;;
11506;SDS011;5810;51.180;6.646;2023-08-12T06:58:29;1.35;;;1.30;;
11506;SDS011;5810;51.180;6.646;2023-08-12T07:00:56;0.70;;;0.70;;
11506;SDS011;5810;51.180;6.646;2023-08-12T07:03:24;0.80;;;0.80;;
11506;SDS011;5810;51.180;6.646;2023-08-12T07:05:50;0.73;;;0.73;;
11506;SDS011;5810;51.180;6.646;2023-08-12T07:08:16;0.90;;;0.90;;
11506;SDS011;5810;51.180;6.646;2023-08-12T07:10:42;1.38;;;1.27;;
11506;SDS011;5810;51.180;6.646;2023-08-12T07:13:08;0.88;;;0.88;;
11506;SDS011;5810;51.180;6.646;2023-08-12T07:15:34;0.80;;;0.80;;
11506;SDS011;5810;51.180;6.646;2023-08-12T07:18:00;1.00;;;0.98;;
11506;SDS011;5810;51.180;6.646;2023-08-12T07:20:26;0.80;;;0.80;;
11506;SDS011;5810;51.180;6.646;2023-08-12T07:22:52;0.80;;;0.80;;
11506;SDS011;5810;51.180;6.646;2023-08-12T07:25:18;1.00;;;1.00;;
11506;SDS011;5810;51.180;6.646;2023-08-12T07:27:44;0.90;;;0.90;;
11506;SDS011;5810;51.180;6.646;2023-08-12T07:30:10;0.82;;;0.80;;
11506;SDS011;5810;51.180;6.646;2023-08-12T07:32:36;0.90;;;0.90;;
11506;SDS011;5810;51.180;6.646;2023-08-12T07:35:03;0.70;;;0.70;;
11506;SDS011;5810;51.180;6.646;2023-08-12T07:37:31;0.90;;;0.90;;
11506;SDS011;5810;51.180;6.646;2023-08-12T07:39:57;0.80;;;0.80;;
11506;SDS011;5810;51.180;6.646;2023-08-12T07:42:23;1.02;;;1.02;;
11506;SDS011;5810;51.180;6.646;2023-08-12T07:44:49;0.70;;;0.70;;
11506;SDS011;5810;51.180;6.646;2023-08-12T07:47:15;0.80;;;0.80;;
11506;SDS011;5810;51.180;6.646;2023-08-12T07:49:41;0.70;;;0.70;;
11506;SDS011;5810;51.180;6.646;2023-08-12T07:52:07;0.70;;;0.70;;
11506;SDS011;5810;51.180;6.646;2023-08-12T07:54:33;0.82;;;0.82;;
11506;SDS011;5810;51.180;6.646;2023-08-12T07:56:59;0.80;;;0.80;;
11506;SDS011;5810;51.180;6.646;2023-08-12T07:59:25;0.93;;;0.93;;
11506;SDS011;5810;51.180;6.646;2023-08-12T08:01:51;1.15;;;1.15;;
11506;SDS011;5810;51.180;6.646;2023-08-12T08:04:17;0.90;;;0.90;;
11506;SDS011;5810;51.180;6.646;2023-08-12T08:06:43;1.20;;;1.20;;
11506;SDS011;5810;51.180;6.646;2023-08-12T08:09:09;0.75;;;0.75;;
11506;SDS011;5810;51.180;6.646;2023-08-12T08:11:35;0.90;;;0.90;;
11506;SDS011;5810;51.180;6.646;2023-08-12T08:14:01;1.95;;;0.70;;
11506;SDS011;5810;51.180;6.646;2023-08-12T08:16:27;0.80;;;0.80;;
11506;SDS011;5810;51.180;6.646;2023-08-12T08:18:53;0.70;;;0.70;;
11506;SDS011;5810;51.180;6.646;2023-08-12T08:21:19;0.80;;;0.80;;
11506;SDS011;5810;51.180;6.646;2023-08-12T08:23:46;1.30;;;0.90;;
11506;SDS011;5810;51.180;6.646;2023-08-12T08:26:12;1.13;;;1.02;;
11506;SDS011;5810;51.180;6.646;2023-08-12T08:28:40;0.70;;;0.70;;
11506;SDS011;5810;51.180;6.646;2023-08-12T08:31:06;0.70;;;0.70;;
11506;SDS011;5810;51.180;6.646;2023-08-12T08:33:32;0.70;;;0.70;;
11506;SDS011;5810;51.180;6.646;2023-08-12T08:35:58;0.90;;;0.90;;
11506;SDS011;5810;51.180;6.646;2023-08-12T08:38:24;0.70;;;0.70;;
11506;SDS011;5810;51.180;6.646;2023-08-12T08:40:50;0.70;;;0.70;;
11506;SDS011;5810;51.180;6.646;2023-08-12T08:43:18;0.70;;;0.70;;
11506;SDS011;5810;51.180;6.646;2023-08-12T08:45:47;0.60;;;0.60;;
11506;SDS011;5810;51.180;6.646;2023-08-12T08:48:14;0.70;;;0.70;;
11506;SDS011;5810;51.180;6.646;2023-08-12T08:50:40;0.70;;;0.70;;
11506;SDS011;5810;51.180;6.646;2023-08-12T08:53:07;0.60;;;0.60;;
11506;SDS011;5810;51.180;6.646;2023-08-12T08:55:33;0.70;;;0.70;;
11506;SDS011;5810;51.180;6.646;2023-08-12T08:57:59;1.33;;;0.70;;
11506;SDS011;5810;51.180;6.646;2023-08-12T09:00:25;0.90;;;0.90;;
11506;SDS011;5810;51.180;6.646;2023-08-12T09:02:51;0.73;;;0.73;;
11506;SDS011;5810;51.180;6.646;2023-08-12T09:05:18;0.70;;;0.70;;
11506;SDS011;5810;51.180;6.646;2023-08-12T09:07:45;1.15;;;1.15;;
11506;SDS011;5810;51.180;6.646;2023-08-12T09:10:12;0.70;;;0.70;;
11506;SDS011;5810;51.180;6.646;2023-08-12T09:12:38;0.60;;;0.60;;
11506;SDS011;5810;51.180;6.646;2023-08-12T09:15:04;0.70;;;0.70;;
11506;SDS011;5810;51.180;6.646;2023-08-12T09:17:31;0.70;;;0.70;;
11506;SDS011;5810;51.180;6.646;2023-08-12T09:19:58;0.80;;;0.80;;
11506;SDS011;5810;51.180;6.646;2023-08-12T09:22:24;0.70;;;0.70;;
11506;SDS011;5810;51.180;6.646;2023-08-12T09:24:57;0.93;;;0.90;;
11506;SDS011;5810;51.180;6.646;2023-08-12T09:27:24;0.70;;;0.70;;
11506;SDS011;5810;51.180;6.646;2023-08-12T09:29:51;0.60;;;0.60;;
11506;SDS011;5810;51.180;6.646;2023-08-12T09:32:24;0.90;;;0.90;;
11506;SDS011;5810;51.180;6.646;2023-08-12T09:34:53;0.65;;;0.65;;
11506;SDS011;5810;51.180;6.646;2023-08-12T09:37:19;0.65;;;0.65;;
11506;SDS011;5810;51.180;6.646;2023-08-12T09:39:46;0.60;;;0.60;;
11506;SDS011;5810;51.180;6.646;2023-08-12T09:42:13;0.70;;;0.70;;
11506;SDS011;5810;51.180;6.646;2023-08-12T09:44:39;0.60;;;0.60;;
11506;SDS011;5810;51.180;6.646;2023-08-12T09:47:06;0.70;;;0.70;;
11506;SDS011;5810;51.180;6.646;2023-08-12T09:49:35;0.85;;;0.85;;
11506;SDS011;5810;51.180;6.646;2023-08-12T09:52:02;0.60;;;0.60;;
11506;SDS011;5810;51.180;6.646;2023-08-12T09:54:30;0.60;;;0.60;;
11506;SDS011;5810;51.180;6.646;2023-08-12T09:57:00;0.70;;;0.70;;
11506;SDS011;5810;51.180;6.646;2023-08-12T09:59:30;0.60;;;0.60;;
11506;SDS011;5810;51.180;6.646;2023-08-12T10:01:57;0.60;;;0.60;;
11506;SDS011;5810;51.180;6.646;2023-08-12T10:04:24;0.60;;;0.60;;
11506;SDS011;5810;51.180;6.646;2023-08-12T10:06:52;0.65;;;0.65;;
11506;SDS011;5810;51.180;6.646;2023-08-12T10:09:18;0.60;;;0.60;;
11506;SDS011;5810;51.180;6.646;2023-08-12T10:11:45;0.70;;;0.70;;
11506;SDS011;5810;51.180;6.646;2023-08-12T10:14:12;0.60;;;0.60;;
11506;SDS011;5810;51.180;6.646;2023-08-12T10:16:38;0.70;;;0.70;;
11506;SDS011;5810;51.180;6.646;2023-08-12T10:19:04;0.70;;;0.70;;
11506;SDS011;5810;51.180;6.646;2023-08-12T10:21:31;0.65;;;0.65;;
11506;SDS011;5810;51.180;6.646;2023-08-12T10:23:58;0.70;;;0.70;;
11506;SDS011;5810;51.180;6.646;2023-08-12T10:26:24;0.65;;;0.65;;
11506;SDS011;5810;51.180;6.646;2023-08-12T10:28:50;0.70;;;0.70;;
11506;SDS011;5810;51.180;6.646;2023-08-12T10:31:17;0.70;;;0.70;;
11506;SDS011;5810;51.180;6.646;2023-08-12T10:33:44;0.80;;;0.80;;
11506;SDS011;5810;51.180;6.646;2023-08-12T10:36:13;0.60;;;0.60;;
11506;SDS011;5810;51.180;6.646;2023-08-12T10:38:40;0.75;;;0.75;;
11506;SDS011;5810;51.180;6.646;2023-08-12T10:41:22;0.80;;;0.80;;
11506;SDS011;5810;51.180;6.646;2023-08-12T10:46:21;0.65;;;0.65;;
11506;SDS011;5810;51.180;6.646;2023-08-12T10:49:06;0.70;;;0.70;;
11506;SDS011;5810;51.180;6.646;2023-08-12T10:51:39;0.80;;;0.80;;
11506;SDS011;5810;51.180;6.646;2023-08-12T10:54:10;0.80;;;0.80;;
11506;SDS011;5810;51.180;6.646;2023-08-12T11:02:16;0.70;;;0.70;;
11506;SDS011;5810;51.180;6.646;2023-08-12T11:04:42;0.70;;;0.70;;
11506;SDS011;5810;51.180;6.646;2023-08-12T11:07:15;0.70;;;0.70;;
11506;SDS011;5810;51.180;6.646;2023-08-12T11:09:42;0.70;;;0.70;;
11506;SDS011;5810;51.180;6.646;2023-08-12T11:12:08;0.70;;;0.70;;
11506;SDS011;5810;51.180;6.646;2023-08-12T11:14:54;0.68;;;0.68;;
11506;SDS011;5810;51.180;6.646;2023-08-12T11:17:20;0.70;;;0.70;;
11506;SDS011;5810;51.180;6.646;2023-08-12T11:19:53;0.75;;;0.75;;
11506;SDS011;5810;51.180;6.646;2023-08-12T11:22:19;0.70;;;0.70;;
11506;SDS011;5810;51.180;6.646;2023-08-12T11:24:45;0.77;;;0.77;;
11506;SDS011;5810;51.180;6.646;2023-08-12T11:27:11;0.70;;;0.70;;
11506;SDS011;5810;51.180;6.646;2023-08-12T11:29:37;0.70;;;0.70;;
11506;SDS011;5810;51.180;6.646;2023-08-12T11:32:04;0.60;;;0.60;;
11506;SDS011;5810;51.180;6.646;2023-08-12T11:34:30;0.70;;;0.70;;
11506;SDS011;5810;51.180;6.646;2023-08-12T11:36:57;0.60;;;0.60;;
11506;SDS011;5810;51.180;6.646;2023-08-12T11:39:24;0.70;;;0.70;;
11506;SDS011;5810;51.180;6.646;2023-08-12T11:41:50;0.70;;;0.70;;
11506;SDS011;5810;51.180;6.646;2023-08-12T11:44:16;0.70;;;0.70;;
11506;SDS011;5810;51.180;6.646;2023-08-12T11:46:42;0.70;;;0.70;;
11506;SDS011;5810;51.180;6.646;2023-08-12T11:49:08;0.60;;;0.60;;
11506;SDS011;5810;51.180;6.646;2023-08-12T11:51:34;0.70;;;0.70;;
11506;SDS011;5810;51.180;6.646;2023-08-12T11:54:01;0.70;;;0.70;;
11506;SDS011;5810;51.180;6.646;2023-08-12T11:56:27;0.70;;;0.70;;
11506;SDS011;5810;51.180;6.646;2023-08-12T11:58:53;0.70;;;0.70;;
11506;SDS011;5810;51.180;6.646;2023-08-12T12:01:20;0.70;;;0.70;;
11506;SDS011;5810;51.180;6.646;2023-08-12T12:03:51;0.70;;;0.70;;
11506;SDS011;5810;51.180;6.646;2023-08-12T12:06:17;1.00;;;1.00;;
11506;SDS011;5810;51.180;6.646;2023-08-12T12:08:44;0.70;;;0.70;;
11506;SDS011;5810;51.180;6.646;2023-08-12T12:11:10;0.70;;;0.70;;
11506;SDS011;5810;51.180;6.646;2023-08-12T12:13:36;0.70;;;0.70;;
11506;SDS011;5810;51.180;6.646;2023-08-12T12:16:02;0.70;;;0.70;;
11506;SDS011;5810;51.180;6.646;2023-08-12T12:18:28;0.70;;;0.70;;
11506;SDS011;5810;51.180;6.646;2023-08-12T12:20:55;0.70;;;0.70;;
11506;SDS011;5810;51.180;6.646;2023-08-12T12:23:21;0.80;;;0.80;;
11506;SDS011;5810;51.180;6.646;2023-08-12T12:25:47;0.70;;;0.70;;
11506;SDS011;5810;51.180;6.646;2023-08-12T12:28:13;0.80;;;0.80;;
11506;SDS011;5810;51.180;6.646;2023-08-12T12:30:39;0.80;;;0.80;;
11506;SDS011;5810;51.180;6.646;2023-08-12T12:33:05;0.70;;;0.70;;
11506;SDS011;5810;51.180;6.646;2023-08-12T12:35:31;0.80;;;0.80;;
11506;SDS011;5810;51.180;6.646;2023-08-12T12:37:57;0.70;;;0.70;;
11506;SDS011;5810;51.180;6.646;2023-08-12T12:40:23;1.10;;;1.08;;
11506;SDS011;5810;51.180;6.646;2023-08-12T12:42:49;0.75;;;0.75;;
11506;SDS011;5810;51.180;6.646;2023-08-12T12:45:15;0.80;;;0.80;;
11506;SDS011;5810;51.180;6.646;2023-08-12T12:47:41;0.75;;;0.75;;
11506;SDS011;5810;51.180;6.646;2023-08-12T12:50:07;0.70;;;0.70;;
11506;SDS011;5810;51.180;6.646;2023-08-12T12:52:33;0.70;;;0.70;;
11506;SDS011;5810;51.180;6.646;2023-08-12T12:54:59;0.75;;;0.75;;
11506;SDS011;5810;51.180;6.646;2023-08-12T12:57:25;1.00;;;1.00;;
11506;SDS011;5810;51.180;6.646;2023-08-12T12:59:51;0.93;;;0.93;;
11506;SDS011;5810;51.180;6.646;2023-08-12T13:02:17;0.80;;;0.80;;
11506;SDS011;5810;51.180;6.646;2023-08-12T13:04:43;1.30;;;0.90;;
11506;SDS011;5810;51.180;6.646;2023-08-12T13:07:09;0.90;;;0.90;;
11506;SDS011;5810;51.180;6.646;2023-08-12T13:09:35;0.90;;;0.90;;
11506;SDS011;5810;51.180;6.646;2023-08-12T13:12:01;0.80;;;0.80;;
11506;SDS011;5810;51.180;6.646;2023-08-12T13:14:27;0.70;;;0.70;;
11506;SDS011;5810;51.180;6.646;2023-08-12T13:16:55;0.88;;;0.88;;
11506;SDS011;5810;51.180;6.646;2023-08-12T13:19:21;0.73;;;0.73;;
11506;SDS011;5810;51.180;6.646;2023-08-12T13:21:47;0.93;;;0.93;;
11506;SDS011;5810;51.180;6.646;2023-08-12T13:24:13;0.80;;;0.80;;
11506;SDS011;5810;51.180;6.646;2023-08-12T13:26:40;0.80;;;0.80;;
11506;SDS011;5810;51.180;6.646;2023-08-12T13:29:06;0.70;;;0.70;;
11506;SDS011;5810;51.180;6.646;2023-08-12T13:31:32;0.60;;;0.60;;
11506;SDS011;5810;51.180;6.646;2023-08-12T13:33:58;0.70;;;0.70;;
11506;SDS011;5810;51.180;6.646;2023-08-12T13:36:24;0.63;;;0.63;;
11506;SDS011;5810;51.180;6.646;2023-08-12T13:38:50;0.70;;;0.70;;
11506;SDS011;5810;51.180;6.646;2023-08-12T13:41:16;0.65;;;0.65;;
11506;SDS011;5810;51.180;6.646;2023-08-12T13:43:42;0.70;;;0.70;;
11506;SDS011;5810;51.180;6.646;2023-08-12T13:46:08;0.70;;;0.70;;
11506;SDS011;5810;51.180;6.646;2023-08-12T13:48:34;0.70;;;0.70;;
11506;SDS011;5810;51.180;6.646;2023-08-12T13:51:00;0.70;;;0.70;;
11506;SDS011;5810;51.180;6.646;2023-08-12T13:53:26;0.70;;;0.70;;
11506;SDS011;5810;51.180;6.646;2023-08-12T13:55:52;0.70;;;0.70;;
11506;SDS011;5810;51.180;6.646;2023-08-12T13:58:18;0.80;;;0.80;;
11506;SDS011;5810;51.180;6.646;2023-08-12T14:00:44;0.70;;;0.70;;
11506;SDS011;5810;51.180;6.646;2023-08-12T14:03:11;0.70;;;0.70;;
11506;SDS011;5810;51.180;6.646;2023-08-12T14:05:37;0.70;;;0.70;;
11506;SDS011;5810;51.180;6.646;2023-08-12T14:08:03;0.70;;;0.70;;
11506;SDS011;5810;51.180;6.646;2023-08-12T14:10:29;0.95;;;0.95;;
11506;SDS011;5810;51.180;6.646;2023-08-12T14:12:55;0.90;;;0.90;;
11506;SDS011;5810;51.180;6.646;2023-08-12T14:15:21;0.95;;;0.95;;
11506;SDS011;5810;51.180;6.646;2023-08-12T14:17:47;0.77;;;0.77;;
11506;SDS011;5810;51.180;6.646;2023-08-12T14:20:13;0.90;;;0.65;;
11506;SDS011;5810;51.180;6.646;2023-08-12T14:22:40;0.80;;;0.80;;
11506;SDS011;5810;51.180;6.646;2023-08-12T14:25:08;0.80;;;0.80;;
11506;SDS011;5810;51.180;6.646;2023-08-12T14:27:35;0.93;;;0.93;;
11506;SDS011;5810;51.180;6.646;2023-08-12T14:30:02;0.90;;;0.90;;
11506;SDS011;5810;51.180;6.646;2023-08-12T14:32:28;0.90;;;0.90;;
11506;SDS011;5810;51.180;6.646;2023-08-12T14:34:54;0.80;;;0.80;;
11506;SDS011;5810;51.180;6.646;2023-08-12T14:37:20;1.13;;;0.93;;
11506;SDS011;5810;51.180;6.646;2023-08-12T14:39:46;0.80;;;0.80;;
11506;SDS011;5810;51.180;6.646;2023-08-12T14:42:11;0.80;;;0.80;;
11506;SDS011;5810;51.180;6.646;2023-08-12T14:44:38;0.70;;;0.70;;
11506;SDS011;5810;51.180;6.646;2023-08-12T14:47:04;0.80;;;0.80;;
11506;SDS011;5810;51.180;6.646;2023-08-12T14:49:30;0.80;;;0.80;;
11506;SDS011;5810;51.180;6.646;2023-08-12T14:51:56;0.70;;;0.70;;
11506;SDS011;5810;51.180;6.646;2023-08-12T14:54:22;0.70;;;0.70;;
11506;SDS011;5810;51.180;6.646;2023-08-12T14:56:48;0.90;;;0.90;;
11506;SDS011;5810;51.180;6.646;2023-08-12T14:59:14;0.90;;;0.90;;
11506;SDS011;5810;51.180;6.646;2023-08-12T15:01:40;0.77;;;0.77;;
11506;SDS011;5810;51.180;6.646;2023-08-12T15:04:06;1.67;;;1.10;;
11506;SDS011;5810;51.180;6.646;2023-08-12T15:06:32;0.88;;;0.88;;